Fridtjof Nansen — DGLS — position and weather

sailwx.info

Track history (hours):
 
Tides and Currents Weather Stations Pressure Air Temp Water Temp Dewpoint Dewpoint Depression Visibility Wind Speed Wind Dir Waves Ship Positions

Fridtjof Nansen (Germany)

Last reported at 2017-Jun-27 09:57 UTC. Time now 2017-Jun-27 10:23 UTC.
Position N 53°54' E 011°28'.

Length 48 m; draft 2.7 m.

Type: Sailing vessel. MMSI: 211364430.

Date/timePositionNaut miles runAvg speedWind from/ knotsBaromVisibWave heightAir tempDewpointWater temp
2017-Jun-27 09:57N 53°54' E 011°28'0 0.0
2017-Jun-27 09:18N 53°54' E 011°28'0 0.0
2017-Jun-27 09:00N 53°54' E 011°28'0 0.0
2017-Jun-27 08:24N 53°54' E 011°28'0 0.0
2017-Jun-27 07:50N 53°54' E 011°28'0 0.0
2017-Jun-27 07:30N 53°54' E 011°28'0 0.2
2017-Jun-27 07:00N 53°54' E 011°27'2 3.0
2017-Jun-27 06:30N 53°55' E 011°26'3 5.9
2017-Jun-27 06:00N 53°58' E 011°23'2 3.6
2017-Jun-27 05:28N 53°59' E 011°21'0 0.1
2017-Jun-27 04:58N 53°59' E 011°21'0 0.0
2017-Jun-27 04:28N 53°59' E 011°21'0 0.0
2017-Jun-27 03:58N 53°59' E 011°21'0 0.0
2017-Jun-27 03:31N 53°59' E 011°21'0 0.0
2017-Jun-27 03:01N 53°59' E 011°21'0 0.0
2017-Jun-27 02:30N 53°59' E 011°21'0 0.0
2017-Jun-27 02:00N 53°59' E 011°21'0 0.0
2017-Jun-27 01:30N 53°59' E 011°21'0 0.0
2017-Jun-27 01:00N 53°59' E 011°21'0 0.0
2017-Jun-27 00:27N 53°59' E 011°21'0 0.0
2017-Jun-27 00:00N 53°59' E 011°21'0 0.0
2017-Jun-26 23:30N 53°59' E 011°21'0 0.0
2017-Jun-26 23:00N 53°59' E 011°21'0 0.0
2017-Jun-26 22:30N 53°59' E 011°21'0 0.0
2017-Jun-26 22:00N 53°59' E 011°21'0 0.0
2017-Jun-26 21:27N 53°59' E 011°21'0 0.0
2017-Jun-26 21:00N 53°59' E 011°21'0 0.0
2017-Jun-26 20:30N 53°59' E 011°21'0 0.0
2017-Jun-26 20:00N 53°59' E 011°21'0 0.0
2017-Jun-26 19:30N 53°59' E 011°21'0 0.0
2017-Jun-26 18:57N 53°59' E 011°21'0 0.0
2017-Jun-26 18:30N 53°59' E 011°21'0 0.0
2017-Jun-26 18:00N 53°59' E 011°21'0 0.0
2017-Jun-26 17:30N 53°59' E 011°21'0 0.0
2017-Jun-26 17:00N 53°59' E 011°21'1 1.7
2017-Jun-26 16:31N 53°60' E 011°20'1 2.1
2017-Jun-26 16:00N 53°59' E 011°19'2 2.1
2017-Jun-26 15:13N 53°57' E 011°17'1 2.0
2017-Jun-26 14:53N 53°57' E 011°17'2 1.6
2017-Jun-26 13:45N 53°59' E 011°16'2 3.4
2017-Jun-26 13:07N 53°56' E 011°16'2 2.9
2017-Jun-26 12:32N 53°58' E 011°15'0 0.0
2017-Jun-26 08:34N 53°58' E 011°15'0 0.0
2017-Jun-26 08:10N 53°58' E 011°15'0 0.0
2017-Jun-26 06:00N 53°58' E 011°15'0 0.0
2017-Jun-26 05:30N 53°58' E 011°15'0 0.0
2017-Jun-26 05:00N 53°58' E 011°15'0 0.0
2017-Jun-26 04:30N 53°58' E 011°15'0 0.0
2017-Jun-26 04:00N 53°58' E 011°15'0 0.0
2017-Jun-26 03:30N 53°58' E 011°15'0 0.0
2017-Jun-26 03:00N 53°58' E 011°15'0 0.0
2017-Jun-26 02:03N 53°58' E 011°15'0 0.0
2017-Jun-26 01:54N 53°58' E 011°15'0 0.0
2017-Jun-25 16:18N 53°58' E 011°15'0 0.0
2017-Jun-25 14:46N 53°58' E 011°15'1 2.4
2017-Jun-25 14:28N 53°58' E 011°16'3 3.1
2017-Jun-25 13:30N 54°01' E 011°20'2 3.8
2017-Jun-25 13:00N 54°02' E 011°18'1 0.0
2017-Jun-23 11:56N 54°03' E 011°18'1 3.2
2017-Jun-23 11:30N 54°02' E 011°19'2 3.9
2017-Jun-23 11:00N 53°60' E 011°20'3 5.2
2017-Jun-23 10:30N 53°58' E 011°17'2 0.1
2017-Jun-22 16:08N 53°58' E 011°19'1 4.9
2017-Jun-22 16:00N 53°58' E 011°20'3 5.3
2017-Jun-22 15:30N 53°57' E 011°24'2 4.9
2017-Jun-22 15:00N 53°55' E 011°26'1 0.3
2017-Jun-22 11:21N 53°54' E 011°27'0 0.0
2017-Jun-22 06:12N 53°54' E 011°27'0 0.0
2017-Jun-22 05:48N 53°54' E 011°27'0 0.0
2017-Jun-22 03:36N 53°54' E 011°27'0 0.0
2017-Jun-22 03:24N 53°54' E 011°27'0 0.0
2017-Jun-22 02:57N 53°54' E 011°27'0 0.0
2017-Jun-22 02:27N 53°54' E 011°27'0 0.0
2017-Jun-22 01:57N 53°54' E 011°27'0 0.0
2017-Jun-22 01:24N 53°54' E 011°27'0 0.0
2017-Jun-22 01:00N 53°54' E 011°27'0 0.0
2017-Jun-21 23:42N 53°54' E 011°27'0 0.0
2017-Jun-21 12:11N 53°54' E 011°27'0 0.0
2017-Jun-21 10:44N 53°54' E 011°27'0 0.0
2017-Jun-21 10:29N 53°54' E 011°27'0 0.0
2017-Jun-21 08:50N 53°54' E 011°27'0 0.0
2017-Jun-21 08:29N 53°54' E 011°27'0 0.0
2017-Jun-21 07:59N 53°54' E 011°27'0 0.0
2017-Jun-21 07:31N 53°54' E 011°27'0 0.6
2017-Jun-21 07:01N 53°54' E 011°27'2 4.5
2017-Jun-21 06:30N 53°56' E 011°25'3 5.1
2017-Jun-21 06:01N 53°58' E 011°22'3 5.2
2017-Jun-21 05:31N 53°58' E 011°17'1 1.1
2017-Jun-21 04:58N 53°58' E 011°16'0 0.0
2017-Jun-21 04:25N 53°58' E 011°16'0 0.0
2017-Jun-21 03:58N 53°58' E 011°16'0 0.0
2017-Jun-21 03:28N 53°58' E 011°16'0 0.0
2017-Jun-21 02:58N 53°58' E 011°16'0 0.0
2017-Jun-21 02:28N 53°58' E 011°16'0 0.0
2017-Jun-21 01:58N 53°58' E 011°16'0 0.0
2017-Jun-21 01:28N 53°58' E 011°16'0 0.0
2017-Jun-21 00:58N 53°58' E 011°16'0 0.0
2017-Jun-21 00:28N 53°58' E 011°16'0 0.0
2017-Jun-20 23:55N 53°58' E 011°16'0 0.0
2017-Jun-20 17:00N 53°58' E 011°16'2 3.3
2017-Jun-20 16:25N 53°59' E 011°19'2 3.0
2017-Jun-20 15:54N 54°01' E 011°20'1 3.2
2017-Jun-20 15:30N 54°02' E 011°18'2 3.6
2017-Jun-20 15:00N 54°03' E 011°16'3 2.6
2017-Jun-20 13:40N 54°06' E 011°14'3 0.1
2017-Jun-18 10:24N 54°03' E 011°15'2 3.4
2017-Jun-18 09:53N 54°02' E 011°17'2 3.1
2017-Jun-18 09:21N 54°01' E 011°19'1 3.0
2017-Jun-18 09:00N 54°00' E 011°20'1 2.6
2017-Jun-18 08:30N 53°59' E 011°21'0 0.2
2017-Jun-18 07:40N 53°59' E 011°22'0 0.0
2017-Jun-18 07:22N 53°59' E 011°22'0 0.0
2017-Jun-18 06:52N 53°59' E 011°22'0 0.0
2017-Jun-18 04:22N 53°59' E 011°22'0 0.0
2017-Jun-18 03:55N 53°59' E 011°22'0 0.0
2017-Jun-18 03:25N 53°59' E 011°22'0 0.0
2017-Jun-18 02:58N 53°59' E 011°22'0 0.0
2017-Jun-18 02:16N 53°59' E 011°22'0 0.0
2017-Jun-18 01:52N 53°59' E 011°22'0 0.0
2017-Jun-18 01:28N 53°59' E 011°22'0 0.0
2017-Jun-18 00:58N 53°59' E 011°22'0 0.0
2017-Jun-18 00:28N 53°59' E 011°22'0 0.0
2017-Jun-17 23:58N 53°59' E 011°22'0 0.0
2017-Jun-17 23:28N 53°59' E 011°22'0 0.0
2017-Jun-17 22:58N 53°59' E 011°22'0 0.0
2017-Jun-17 22:28N 53°59' E 011°22'0 0.0
2017-Jun-17 21:58N 53°59' E 011°22'0 0.0
2017-Jun-17 21:25N 53°59' E 011°22'0 0.0
2017-Jun-17 20:55N 53°59' E 011°22'0 0.0
2017-Jun-17 20:19N 53°59' E 011°22'0 0.1
2017-Jun-17 19:56N 53°59' E 011°22'2 4.0
2017-Jun-17 19:30N 53°58' E 011°23'2 4.2
2017-Jun-17 19:00N 53°56' E 011°25'2 4.2
2017-Jun-17 18:30N 53°54' E 011°27'1 0.1
2017-Jun-17 13:30N 53°54' E 011°28'0 0.0
2017-Jun-17 12:48N 53°54' E 011°28'0 0.0
2017-Jun-17 12:30N 53°54' E 011°28'0 0.0
2017-Jun-17 10:15N 53°54' E 011°28'  
Track history (hours):
 
Tides and Currents Weather Stations Pressure Air Temp Water Temp Dewpoint Dewpoint Depression Visibility Wind Speed Wind Dir Waves Ship Positions

Fridtjof Nansen (Germany)

Last reported at 2017-Jun-27 09:57 UTC. Time now 2017-Jun-27 10:23 UTC.
Position N 53°54' E 011°28'.

Length 48 m; draft 2.7 m.

Type: Sailing vessel. MMSI: 211364430.

Date/timePositionNaut miles runAvg speedWind from/ knotsBaromVisibWave heightAir tempDewpointWater temp
2017-Jun-27 09:57N 53°54' E 011°28'0 0.0
2017-Jun-27 09:18N 53°54' E 011°28'0 0.0
2017-Jun-27 09:00N 53°54' E 011°28'0 0.0
2017-Jun-27 08:24N 53°54' E 011°28'0 0.0
2017-Jun-27 07:50N 53°54' E 011°28'0 0.0
2017-Jun-27 07:30N 53°54' E 011°28'0 0.2
2017-Jun-27 07:00N 53°54' E 011°27'2 3.0
2017-Jun-27 06:30N 53°55' E 011°26'3 5.9
2017-Jun-27 06:00N 53°58' E 011°23'2 3.6
2017-Jun-27 05:28N 53°59' E 011°21'0 0.1
2017-Jun-27 04:58N 53°59' E 011°21'0 0.0
2017-Jun-27 04:28N 53°59' E 011°21'0 0.0
2017-Jun-27 03:58N 53°59' E 011°21'0 0.0
2017-Jun-27 03:31N 53°59' E 011°21'0 0.0
2017-Jun-27 03:01N 53°59' E 011°21'0 0.0
2017-Jun-27 02:30N 53°59' E 011°21'0 0.0
2017-Jun-27 02:00N 53°59' E 011°21'0 0.0
2017-Jun-27 01:30N 53°59' E 011°21'0 0.0
2017-Jun-27 01:00N 53°59' E 011°21'0 0.0
2017-Jun-27 00:27N 53°59' E 011°21'0 0.0
2017-Jun-27 00:00N 53°59' E 011°21'0 0.0
2017-Jun-26 23:30N 53°59' E 011°21'0 0.0
2017-Jun-26 23:00N 53°59' E 011°21'0 0.0
2017-Jun-26 22:30N 53°59' E 011°21'0 0.0
2017-Jun-26 22:00N 53°59' E 011°21'0 0.0
2017-Jun-26 21:27N 53°59' E 011°21'0 0.0
2017-Jun-26 21:00N 53°59' E 011°21'0 0.0
2017-Jun-26 20:30N 53°59' E 011°21'0 0.0
2017-Jun-26 20:00N 53°59' E 011°21'0 0.0
2017-Jun-26 19:30N 53°59' E 011°21'0 0.0
2017-Jun-26 18:57N 53°59' E 011°21'0 0.0
2017-Jun-26 18:30N 53°59' E 011°21'0 0.0
2017-Jun-26 18:00N 53°59' E 011°21'0 0.0
2017-Jun-26 17:30N 53°59' E 011°21'0 0.0
2017-Jun-26 17:00N 53°59' E 011°21'1 1.7
2017-Jun-26 16:31N 53°60' E 011°20'1 2.1
2017-Jun-26 16:00N 53°59' E 011°19'2 2.1
2017-Jun-26 15:13N 53°57' E 011°17'1 2.0
2017-Jun-26 14:53N 53°57' E 011°17'2 1.6
2017-Jun-26 13:45N 53°59' E 011°16'2 3.4
2017-Jun-26 13:07N 53°56' E 011°16'2 2.9
2017-Jun-26 12:32N 53°58' E 011°15'0 0.0
2017-Jun-26 08:34N 53°58' E 011°15'0 0.0
2017-Jun-26 08:10N 53°58' E 011°15'0 0.0
2017-Jun-26 06:00N 53°58' E 011°15'0 0.0
2017-Jun-26 05:30N 53°58' E 011°15'0 0.0
2017-Jun-26 05:00N 53°58' E 011°15'0 0.0
2017-Jun-26 04:30N 53°58' E 011°15'0 0.0
2017-Jun-26 04:00N 53°58' E 011°15'0 0.0
2017-Jun-26 03:30N 53°58' E 011°15'0 0.0
2017-Jun-26 03:00N 53°58' E 011°15'0 0.0
2017-Jun-26 02:03N 53°58' E 011°15'0 0.0
2017-Jun-26 01:54N 53°58' E 011°15'0 0.0
2017-Jun-25 16:18N 53°58' E 011°15'0 0.0
2017-Jun-25 14:46N 53°58' E 011°15'1 2.4
2017-Jun-25 14:28N 53°58' E 011°16'3 3.1
2017-Jun-25 13:30N 54°01' E 011°20'2 3.8
2017-Jun-25 13:00N 54°02' E 011°18'1 0.0
2017-Jun-23 11:56N 54°03' E 011°18'1 3.2
2017-Jun-23 11:30N 54°02' E 011°19'2 3.9
2017-Jun-23 11:00N 53°60' E 011°20'3 5.2
2017-Jun-23 10:30N 53°58' E 011°17'2 0.1
2017-Jun-22 16:08N 53°58' E 011°19'1 4.9
2017-Jun-22 16:00N 53°58' E 011°20'3 5.3
2017-Jun-22 15:30N 53°57' E 011°24'2 4.9
2017-Jun-22 15:00N 53°55' E 011°26'1 0.3
2017-Jun-22 11:21N 53°54' E 011°27'0 0.0
2017-Jun-22 06:12N 53°54' E 011°27'0 0.0
2017-Jun-22 05:48N 53°54' E 011°27'0 0.0
2017-Jun-22 03:36N 53°54' E 011°27'0 0.0
2017-Jun-22 03:24N 53°54' E 011°27'0 0.0
2017-Jun-22 02:57N 53°54' E 011°27'0 0.0
2017-Jun-22 02:27N 53°54' E 011°27'0 0.0
2017-Jun-22 01:57N 53°54' E 011°27'0 0.0
2017-Jun-22 01:24N 53°54' E 011°27'0 0.0
2017-Jun-22 01:00N 53°54' E 011°27'0 0.0
2017-Jun-21 23:42N 53°54' E 011°27'0 0.0
2017-Jun-21 12:11N 53°54' E 011°27'0 0.0
2017-Jun-21 10:44N 53°54' E 011°27'0 0.0
2017-Jun-21 10:29N 53°54' E 011°27'0 0.0
2017-Jun-21 08:50N 53°54' E 011°27'0 0.0
2017-Jun-21 08:29N 53°54' E 011°27'0 0.0
2017-Jun-21 07:59N 53°54' E 011°27'0 0.0
2017-Jun-21 07:31N 53°54' E 011°27'0 0.6
2017-Jun-21 07:01N 53°54' E 011°27'2 4.5
2017-Jun-21 06:30N 53°56' E 011°25'3 5.1
2017-Jun-21 06:01N 53°58' E 011°22'3 5.2
2017-Jun-21 05:31N 53°58' E 011°17'1 1.1
2017-Jun-21 04:58N 53°58' E 011°16'0 0.0
2017-Jun-21 04:25N 53°58' E 011°16'0 0.0
2017-Jun-21 03:58N 53°58' E 011°16'0 0.0
2017-Jun-21 03:28N 53°58' E 011°16'0 0.0
2017-Jun-21 02:58N 53°58' E 011°16'0 0.0
2017-Jun-21 02:28N 53°58' E 011°16'0 0.0
2017-Jun-21 01:58N 53°58' E 011°16'0 0.0
2017-Jun-21 01:28N 53°58' E 011°16'0 0.0
2017-Jun-21 00:58N 53°58' E 011°16'0 0.0
2017-Jun-21 00:28N 53°58' E 011°16'0 0.0
2017-Jun-20 23:55N 53°58' E 011°16'0 0.0
2017-Jun-20 17:00N 53°58' E 011°16'2 3.3
2017-Jun-20 16:25N 53°59' E 011°19'2 3.0
2017-Jun-20 15:54N 54°01' E 011°20'1 3.2
2017-Jun-20 15:30N 54°02' E 011°18'2 3.6
2017-Jun-20 15:00N 54°03' E 011°16'3 2.6
2017-Jun-20 13:40N 54°06' E 011°14'3 0.1
2017-Jun-18 10:24N 54°03' E 011°15'2 3.4
2017-Jun-18 09:53N 54°02' E 011°17'2 3.1
2017-Jun-18 09:21N 54°01' E 011°19'1 3.0
2017-Jun-18 09:00N 54°00' E 011°20'1 2.6
2017-Jun-18 08:30N 53°59' E 011°21'0 0.2
2017-Jun-18 07:40N 53°59' E 011°22'0 0.0
2017-Jun-18 07:22N 53°59' E 011°22'0 0.0
2017-Jun-18 06:52N 53°59' E 011°22'0 0.0
2017-Jun-18 04:22N 53°59' E 011°22'0 0.0
2017-Jun-18 03:55N 53°59' E 011°22'0 0.0
2017-Jun-18 03:25N 53°59' E 011°22'0 0.0
2017-Jun-18 02:58N 53°59' E 011°22'0 0.0
2017-Jun-18 02:16N 53°59' E 011°22'0 0.0
2017-Jun-18 01:52N 53°59' E 011°22'0 0.0
2017-Jun-18 01:28N 53°59' E 011°22'0 0.0
2017-Jun-18 00:58N 53°59' E 011°22'0 0.0
2017-Jun-18 00:28N 53°59' E 011°22'0 0.0
2017-Jun-17 23:58N 53°59' E 011°22'0 0.0
2017-Jun-17 23:28N 53°59' E 011°22'0 0.0
2017-Jun-17 22:58N 53°59' E 011°22'0 0.0
2017-Jun-17 22:28N 53°59' E 011°22'0 0.0
2017-Jun-17 21:58N 53°59' E 011°22'0 0.0
2017-Jun-17 21:25N 53°59' E 011°22'0 0.0
2017-Jun-17 20:55N 53°59' E 011°22'0 0.0
2017-Jun-17 20:19N 53°59' E 011°22'0 0.1
2017-Jun-17 19:56N 53°59' E 011°22'2 4.0
2017-Jun-17 19:30N 53°58' E 011°23'2 4.2
2017-Jun-17 19:00N 53°56' E 011°25'2 4.2
2017-Jun-17 18:30N 53°54' E 011°27'1 0.1
2017-Jun-17 13:30N 53°54' E 011°28'0 0.0
2017-Jun-17 12:48N 53°54' E 011°28'0 0.0
2017-Jun-17 12:30N 53°54' E 011°28'0 0.0
2017-Jun-17 10:15N 53°54' E 011°28'  

Dump ship's entire track history